METAR AND TAF INFORMATION
METAR FOR EDVE
ADDS - METARS form results

(0939 UTC 24 May 2018)
Data provider http://aviationweather.gov/adds/metars/
 
METAR text: EDVE 240920Z 09011KT 060V120 CAVOK 22/10 Q1022
Conditions at: EDVE (BRAUNSCHWEIG , DE) observed 0920 UTC 24 May 2018
Temperature: 22.0°C (72°F)
Dewpoint: 10.0°C (50°F) [RH = 46%]
Pressure (altimeter): 30.18 inches Hg (1022.0 mb)
Winds: from the E (90 degrees) at 13 MPH (11 knots; 5.7 m/s)
Visibility: 6 or more miles (10+ km)
Ceiling: ceiling and visibility are OK
Clouds: unknown
Weather: no significant weather observed at this time

METAR text: EDVE 240850Z 09011KT CAVOK 21/10 Q1022
Conditions at: EDVE (BRAUNSCHWEIG , DE) observed 0850 UTC 24 May 2018
Temperature: 21.0°C (70°F)
Dewpoint: 10.0°C (50°F) [RH = 49%]
Pressure (altimeter): 30.18 inches Hg (1022.0 mb)
Winds: from the E (90 degrees) at 13 MPH (11 knots; 5.7 m/s)
Visibility: 6 or more miles (10+ km)
Ceiling: ceiling and visibility are OK
Clouds: unknown
Weather: no significant weather observed at this time

Forecast for: EDVE (BRAUNSCHWEIG , DE)
Text: TAF EDVE 240800Z 2409/2418 10012KT CAVOK
Forecast period: 0900 to 1800 UTC 24 May 2018
Forecast type: FROM: standard forecast or significant change
Winds: from the E (100 degrees) at 14 MPH (12 knots; 6.2 m/s)
Visibility: 6 or more miles (10+ km)
Clouds: not forecast
Weather: NSW  (no significant weather)
Text: TEMPO 2411/2418 10015G25KT
Forecast period: 1100 to 1800 UTC 24 May 2018
Forecast type: TEMPORARY: The following changes expected for less than half the time period
Winds: from the E (100 degrees) at 17 MPH (15 knots; 7.8 m/s)
gusting to 29 MPH (25 knots; 13.0 m/s)
Weather: no significant weather forecast for this period
Text: PROB30
Forecast period: 1600 to 1800 UTC 24 May 2018
Forecast type: TEMPORARY: The following changes expected for less than half the time period
Ceiling: 3000 feet AGL
Clouds: broken clouds at 3000 feet AGL
Weather: -TSRA  (light rain associated with thunderstorm(s))

 AIRPORT MAP

 RUNWAY INFORMATION
Runway 08 Runway length 7546 ft Runway width 148 ft
Runway elevation 273 ft Runway displaced threshold 0 ft Runway heading 85
Runway 26 Runway length 7546 ft Runway width 148 ft
Runway elevation 291 ft Runway displaced threshold 591 ft Runway heading 265
Runway 08R Runway length 2953 ft Runway width 98 ft
Runway elevation 0 ft Runway displaced threshold 0 ft Runway heading 85
Runway 26L Runway length 2953 ft Runway width 98 ft
Runway elevation 0 ft Runway displaced threshold 0 ft Runway heading 265

 AIRPORT FREQUENCIES
Type ACC Name BREMEN RAD Frequency 131.325 MHZ
Type AFIS Name BREMEN INF Frequency 119.825 MHZ
Type INFO Name INFO Frequency 120.05 MHZ
Type TWR Name TWR Frequency 120.05 MHZ

 AIRPORT NEAR NAVIGATION AIDS
Type NDB Name Braunschweig Frequency 427 KHZ



Powered by Virtual Airlines Manager [v2.6.2]